createdAt,value
2023-04-27T00:01:04.769Z,1048.1
2023-04-27T00:02:48.534Z,1048.8
2023-04-27T00:04:32.190Z,1048
2023-04-27T00:06:15.886Z,1048.6
2023-04-27T00:07:59.579Z,1047.7
2023-04-27T00:09:43.309Z,1047
2023-04-27T00:11:26.989Z,1047.8
2023-04-27T00:13:10.693Z,1044.8
2023-04-27T00:14:54.386Z,1045.3
2023-04-27T00:16:38.101Z,1048.8
2023-04-27T00:18:21.786Z,1056
2023-04-27T00:20:05.498Z,1055.3
2023-04-27T00:21:49.197Z,1053.4
2023-04-27T00:23:32.948Z,1051.8
2023-04-27T00:25:16.609Z,1047.4
2023-04-27T00:27:00.298Z,1048.9
2023-04-27T00:28:44.002Z,1049.1
2023-04-27T00:30:27.711Z,1050.3
2023-04-27T00:32:11.405Z,1050.2
2023-04-27T00:33:55.116Z,1049.7
2023-04-27T00:35:38.808Z,1044.9
2023-04-27T00:37:22.526Z,1041.4
2023-04-27T00:39:06.228Z,1039.8
2023-04-27T00:40:49.928Z,1043.6
2023-04-27T00:42:33.651Z,1048.9
2023-04-27T00:44:17.330Z,1047.3
2023-04-27T00:46:01.033Z,1048.6
2023-04-27T00:47:44.730Z,1044.5
2023-04-27T00:49:28.443Z,1046.4
2023-04-27T00:51:12.159Z,1045.9
2023-04-27T00:52:55.845Z,1049.8
2023-04-27T00:54:39.544Z,1049.4
2023-04-27T00:56:23.256Z,1051.4
2023-04-27T00:58:06.948Z,1051.2
2023-04-27T00:59:50.644Z,1051.6
2023-04-27T01:01:34.347Z,1047.7
2023-04-27T01:03:18.062Z,1046.6
2023-04-27T01:05:01.770Z,1047.2
2023-04-27T01:06:45.464Z,1051.7
2023-04-27T01:08:29.156Z,1054.5
2023-04-27T01:10:12.880Z,1055.1
2023-04-27T01:11:56.575Z,1056.4
2023-04-27T01:13:40.265Z,1057.2
2023-04-27T01:15:23.967Z,1055.1
2023-04-27T01:17:07.729Z,1051.8
2023-04-27T01:18:51.393Z,1049
2023-04-27T01:20:35.077Z,1048.8
2023-04-27T01:22:18.773Z,1052.1
2023-04-27T01:24:02.479Z,1051.4
2023-04-27T01:25:46.217Z,1051.6
2023-04-27T01:27:29.871Z,1053
2023-04-27T01:29:13.577Z,1053.2
2023-04-27T01:30:57.298Z,1050.3
2023-04-27T01:32:40.991Z,1051.7
2023-04-27T01:34:24.698Z,1050.9
2023-04-27T01:36:08.392Z,1052.2
2023-04-27T01:37:52.103Z,1052.8
2023-04-27T01:39:35.829Z,1054.3
2023-04-27T01:41:19.509Z,1056.4
2023-04-27T01:43:03.222Z,1055.1
2023-04-27T01:44:46.920Z,1052.8
2023-04-27T01:46:30.616Z,1052.5
2023-04-27T01:48:14.323Z,1053.4
2023-04-27T01:49:58.019Z,1054.6
2023-04-27T01:51:41.748Z,1054.2
2023-04-27T01:53:25.432Z,1045.6
2023-04-27T01:55:09.124Z,1045.3
2023-04-27T01:56:52.830Z,1044.5
2023-04-27T01:58:36.549Z,1041
2023-04-27T02:00:20.229Z,1037.7
2023-04-27T02:02:03.939Z,1038.7
2023-04-27T02:03:47.642Z,1039.9
2023-04-27T02:05:31.343Z,1037.6
2023-04-27T02:07:15.046Z,1045.2
2023-04-27T02:08:58.733Z,1046.8
2023-04-27T02:10:42.453Z,1047.9
2023-04-27T02:12:26.152Z,1046.9
2023-04-27T02:14:09.855Z,1046.1
2023-04-27T02:15:53.555Z,1047.2
2023-04-27T02:17:37.250Z,1045.7
2023-04-27T02:19:20.959Z,1045.7
2023-04-27T02:21:04.659Z,1045.9
2023-04-27T02:22:48.349Z,1044.5
2023-04-27T02:24:32.064Z,1046.8
2023-04-27T02:26:15.773Z,1045.7
2023-04-27T02:27:59.462Z,1043.9
2023-04-27T02:29:43.185Z,1046.7
2023-04-27T02:31:26.872Z,1050.8
2023-04-27T02:33:10.579Z,1056.8
2023-04-27T02:34:54.282Z,1059.2
2023-04-27T02:36:37.988Z,1060.5
2023-04-27T02:38:21.687Z,1053.9
2023-04-27T02:40:05.389Z,1051.7
2023-04-27T02:41:49.088Z,1051.5
2023-04-27T02:43:32.793Z,1055
2023-04-27T02:45:16.496Z,1055
2023-04-27T02:47:00.201Z,1057.7
2023-04-27T02:48:43.897Z,1060
2023-04-27T02:50:27.604Z,1061.2
2023-04-27T02:52:11.312Z,1059.9
2023-04-27T02:53:55.019Z,1061.6
2023-04-27T02:55:38.710Z,1064.7
2023-04-27T02:57:22.410Z,1063.3
2023-04-27T02:59:06.113Z,1061
2023-04-27T03:00:49.827Z,1060.8
2023-04-27T03:02:33.517Z,1060
2023-04-27T03:04:17.218Z,1059
2023-04-27T03:06:00.923Z,1059.9
2023-04-27T03:09:28.319Z,1065.3
2023-04-27T03:11:12.039Z,1066.7
2023-04-27T03:12:55.736Z,1065.8
2023-04-27T03:14:39.441Z,1066.7
2023-04-27T03:16:23.139Z,1067
2023-04-27T03:18:06.842Z,1070.3
2023-04-27T03:19:50.546Z,1071.2
2023-04-27T03:21:34.250Z,1068.7
2023-04-27T03:23:17.944Z,1068.9
2023-04-27T03:25:01.652Z,1068.3
2023-04-27T03:26:45.363Z,1065.5
2023-04-27T03:28:29.068Z,1068.7
2023-04-27T03:30:12.752Z,1071.1
2023-04-27T03:31:56.464Z,1071.5
2023-04-27T03:33:40.166Z,1070
2023-04-27T03:35:23.873Z,1067.7
2023-04-27T03:37:07.569Z,1067.4
2023-04-27T03:38:51.267Z,1069.7
2023-04-27T03:40:34.976Z,1074.5
2023-04-27T03:42:18.681Z,1073.9
2023-04-27T03:44:02.380Z,1076.7
2023-04-27T03:45:46.084Z,1079.2
2023-04-27T03:47:29.778Z,1073.2
2023-04-27T03:49:13.495Z,1070.9
2023-04-27T03:50:57.193Z,1072.6
2023-04-27T03:52:40.899Z,1074.6
2023-04-27T03:54:24.586Z,1081.8
2023-04-27T03:56:08.284Z,1087.6
2023-04-27T03:57:52.006Z,1089.7
2023-04-27T03:59:35.703Z,1088.2
2023-04-27T04:01:19.399Z,1088.9
2023-04-27T04:03:03.110Z,1084
2023-04-27T04:04:46.810Z,1084.8
2023-04-27T04:06:30.512Z,1088.2
2023-04-27T04:08:14.214Z,1091.9
2023-04-27T04:09:57.913Z,1100.9
2023-04-27T04:11:41.623Z,1100.9
2023-04-27T04:13:25.316Z,1092.6
2023-04-27T04:15:09.022Z,1088.8
2023-04-27T04:16:52.726Z,1089.4
2023-04-27T04:18:36.429Z,1091.3
2023-04-27T04:20:20.132Z,1092.1
2023-04-27T04:22:03.836Z,1094.5
2023-04-27T04:23:47.538Z,1093.7
2023-04-27T04:25:31.241Z,1090.8
2023-04-27T04:27:14.947Z,1089.3
2023-04-27T04:28:58.630Z,1089.5
2023-04-27T04:30:42.332Z,1093.8
2023-04-27T04:32:26.054Z,1095.3
2023-04-27T04:34:09.751Z,1098.2
2023-04-27T04:35:53.453Z,1104.2
2023-04-27T04:37:37.152Z,1096.6
2023-04-27T04:39:20.859Z,1097.4
2023-04-27T04:41:04.560Z,1098.7
2023-04-27T04:42:48.260Z,1102.6
2023-04-27T04:44:31.966Z,1103.8
2023-04-27T04:46:15.675Z,1106
2023-04-27T04:47:59.371Z,1111.7
2023-04-27T04:49:43.080Z,1111.1
2023-04-27T04:51:26.769Z,1110.4
2023-04-27T04:53:10.475Z,1111.7
2023-04-27T04:54:54.201Z,1109.6
2023-04-27T04:56:37.896Z,1106.9
2023-04-27T04:58:21.582Z,1109.2
2023-04-27T05:00:05.292Z,1107.4
2023-04-27T05:01:48.985Z,1109
2023-04-27T05:03:32.694Z,1110.4
2023-04-27T05:05:16.417Z,1108.5
2023-04-27T05:07:00.105Z,1107.9
2023-04-27T05:08:43.811Z,1108.5
2023-04-27T05:10:27.490Z,1104.5
2023-04-27T05:12:11.210Z,1109.8
2023-04-27T05:13:54.915Z,1110.1
2023-04-27T05:15:39.209Z,1110.9
2023-04-27T05:17:22.316Z,1113.9
2023-04-27T05:19:06.029Z,1114.1
2023-04-27T05:20:49.716Z,1109.5
2023-04-27T05:22:33.421Z,1109.9
2023-04-27T05:24:17.119Z,1112.7
2023-04-27T05:26:00.852Z,1114.2
2023-04-27T05:27:44.569Z,1114.2
2023-04-27T05:29:28.218Z,1112.4
2023-04-27T05:31:11.928Z,1116.1
2023-04-27T05:32:55.644Z,1117.2
2023-04-27T05:34:39.342Z,1118.8
2023-04-27T05:36:23.131Z,1118.3
2023-04-27T05:38:06.738Z,1122.1
2023-04-27T05:39:50.473Z,1117.2
2023-04-27T05:41:34.161Z,1113.1
2023-04-27T05:43:17.863Z,1103.6
2023-04-27T05:45:01.554Z,1097.3
2023-04-27T05:46:45.257Z,1092.2
2023-04-27T05:48:28.956Z,1085.8
2023-04-27T05:50:12.656Z,1080.8
2023-04-27T05:51:56.362Z,1081.9
2023-04-27T05:53:40.064Z,1080.1
2023-04-27T05:55:23.771Z,1083.1
2023-04-27T05:57:07.478Z,1090.3
2023-04-27T05:58:51.364Z,1094.1
2023-04-27T06:00:34.902Z,1098.8
2023-04-27T06:02:18.797Z,1104.1
2023-04-27T06:04:02.383Z,1106.7
2023-04-27T06:05:45.986Z,1113.6
2023-04-27T06:07:29.696Z,1115.1
2023-04-27T06:09:13.393Z,1117.5
2023-04-27T06:10:57.098Z,1120.3
2023-04-27T06:12:40.801Z,1122.9
2023-04-27T06:14:24.491Z,1124.8
2023-04-27T06:16:08.229Z,1123.8
2023-04-27T06:17:51.919Z,1124.1
2023-04-27T06:19:35.610Z,1127.4
2023-04-27T06:21:19.310Z,1132.1
2023-04-27T06:23:03.038Z,1133.6
2023-04-27T06:24:46.720Z,1139.6
2023-04-27T06:26:30.512Z,1141.6
2023-04-27T06:28:14.127Z,1145
2023-04-27T06:29:57.848Z,1146.8
2023-04-27T06:31:41.556Z,1147.8
2023-04-27T06:33:25.227Z,1150.7
2023-04-27T06:35:08.937Z,1154.6
2023-04-27T06:36:52.637Z,1155.4
2023-04-27T06:38:36.341Z,1158.1
2023-04-27T06:40:20.178Z,1161.3
2023-04-27T06:42:03.755Z,1162.9
2023-04-27T06:43:47.450Z,1169.4
2023-04-27T06:45:31.142Z,1175.1
2023-04-27T06:47:15.035Z,1171.4
2023-04-27T06:48:58.647Z,1167.4
2023-04-27T06:50:42.260Z,1169.2
2023-04-27T06:52:25.955Z,1171.4
2023-04-27T06:54:09.653Z,1176.8
2023-04-27T06:55:53.365Z,1180.3
2023-04-27T06:57:37.067Z,1232.3
2023-04-27T06:59:20.760Z,1489.1
2023-04-27T07:01:04.540Z,1362.4
2023-04-27T07:02:48.316Z,1414
2023-04-27T07:04:31.882Z,1424.8
2023-04-27T07:06:15.645Z,1436.3
2023-04-27T07:07:59.377Z,1442.9
2023-04-27T07:09:43.106Z,1442.5
2023-04-27T07:11:26.757Z,1434.4
2023-04-27T07:13:10.375Z,1425.1
2023-04-27T07:14:54.080Z,1423.5
2023-04-27T07:16:37.793Z,1423.9
2023-04-27T07:18:21.538Z,1419
2023-04-27T07:20:05.235Z,1402.7
2023-04-27T07:21:48.894Z,1380.8
2023-04-27T07:23:32.605Z,1372.1
2023-04-27T07:25:16.306Z,1367.7
2023-04-27T07:26:59.997Z,1358.6
2023-04-27T07:28:43.695Z,1354.9
2023-04-27T07:30:27.411Z,1354.1
2023-04-27T07:32:11.124Z,1353.1
2023-04-27T07:33:54.821Z,1353
2023-04-27T07:35:38.604Z,1347.6
2023-04-27T07:37:22.465Z,1338
2023-04-27T07:39:05.924Z,1333.3
2023-04-27T07:40:49.736Z,1332.1
2023-04-27T07:42:33.366Z,1333.4
2023-04-27T07:44:17.050Z,1332.9
2023-04-27T07:46:00.791Z,1326.9
2023-04-27T07:47:44.426Z,1329
2023-04-27T07:49:28.202Z,1332
2023-04-27T07:51:11.905Z,1374.6
2023-04-27T07:52:55.547Z,1683.9
2023-04-27T07:54:39.356Z,1765.8
2023-04-27T07:56:23.057Z,1647.9
2023-04-27T07:58:06.854Z,1515.1
2023-04-27T07:59:50.365Z,1487.8
2023-04-27T08:01:34.082Z,1469.2
2023-04-27T08:03:17.825Z,1472.3
2023-04-27T08:05:01.451Z,1476.9
2023-04-27T08:06:45.150Z,1475.8
2023-04-27T08:08:28.864Z,1478.6
2023-04-27T08:10:12.556Z,1474.7
2023-04-27T08:11:56.275Z,1472.5
2023-04-27T08:13:40.039Z,1470.9
2023-04-27T08:15:23.738Z,1471.8
2023-04-27T08:17:07.366Z,1468.4
2023-04-27T08:18:51.069Z,1459.8
2023-04-27T08:20:34.776Z,1458.2
2023-04-27T08:22:18.476Z,1458.8
2023-04-27T08:24:02.205Z,1458.4
2023-04-27T08:25:45.884Z,1463.2
2023-04-27T08:27:29.675Z,1573.6
2023-04-27T08:29:13.287Z,1582
2023-04-27T08:30:57.043Z,1589.4
2023-04-27T08:32:40.678Z,1589.4
2023-04-27T08:34:24.410Z,1588
2023-04-27T08:36:08.106Z,1585.3
2023-04-27T08:37:51.800Z,1577
2023-04-27T08:39:35.523Z,1570.5
2023-04-27T08:41:19.205Z,1568.4
2023-04-27T08:43:03.020Z,1567.5
2023-04-27T08:44:46.639Z,1562.1
2023-04-27T08:46:30.307Z,1561.6
2023-04-27T08:48:14.016Z,1562.7
2023-04-27T08:49:57.742Z,1557.7
2023-04-27T08:51:41.443Z,1556.1
2023-04-27T08:53:25.182Z,1551.6
2023-04-27T08:55:08.849Z,1554.5
2023-04-27T08:56:52.549Z,1554.7
2023-04-27T08:58:36.237Z,1554.5
2023-04-27T09:00:19.950Z,1555.2
2023-04-27T09:02:03.666Z,1551.4
2023-04-27T09:03:47.358Z,1543.1
2023-04-27T09:05:31.055Z,1539.8
2023-04-27T09:07:14.753Z,1539.3
2023-04-27T09:08:58.565Z,1534
2023-04-27T09:10:42.170Z,1528.6
2023-04-27T09:12:25.989Z,1521.9
2023-04-27T09:14:09.577Z,1515.4
2023-04-27T09:15:53.259Z,1510.9
2023-04-27T09:17:37.065Z,1505.9
2023-04-27T09:19:20.899Z,1499.8
2023-04-27T09:21:04.543Z,1490.7
2023-04-27T09:22:48.245Z,1484.8
2023-04-27T09:24:31.848Z,1479.5
2023-04-27T09:26:15.505Z,1475.3
2023-04-27T09:27:59.329Z,1480
2023-04-27T09:29:42.945Z,1586
2023-04-27T09:31:26.709Z,1632.4
2023-04-27T09:33:10.316Z,1630.4
2023-04-27T09:34:54.108Z,1574
2023-04-27T09:36:37.710Z,1513.6
2023-04-27T09:38:21.564Z,1506.5
2023-04-27T09:40:05.106Z,1507.6
2023-04-27T09:41:48.823Z,1508.5
2023-04-27T09:43:32.509Z,1509.3
2023-04-27T09:45:16.217Z,1508.3
2023-04-27T09:46:59.914Z,1513.6
2023-04-27T09:48:43.606Z,1513.8
2023-04-27T09:50:27.318Z,1515.6
2023-04-27T09:52:11.011Z,1515.3
2023-04-27T09:53:54.728Z,1513.9
2023-04-27T09:55:38.421Z,1517.3
2023-04-27T09:57:22.197Z,1517.9
2023-04-27T09:59:05.963Z,1514.1
2023-04-27T10:00:49.535Z,1511.7
2023-04-27T10:02:33.229Z,1513.3
2023-04-27T10:04:16.936Z,1523.3
2023-04-27T10:06:00.702Z,1544.7
2023-04-27T10:07:44.337Z,1554.4
2023-04-27T10:11:11.783Z,1545.9
2023-04-27T10:12:55.568Z,1510.5
2023-04-27T10:14:39.301Z,1445.4
2023-04-27T10:16:22.849Z,1426.1
2023-04-27T10:18:06.618Z,1404.7
2023-04-27T10:19:50.262Z,1396.6
2023-04-27T10:21:33.976Z,1382.1
2023-04-27T10:25:01.379Z,1354.3
2023-04-27T10:26:45.153Z,1375.6
2023-04-27T10:28:28.811Z,1386.5
2023-04-27T10:30:12.483Z,1380.6
2023-04-27T10:31:56.276Z,1134.9
2023-04-27T10:33:39.972Z,790.3
2023-04-27T10:35:23.581Z,736.9
2023-04-27T10:37:07.284Z,790.7
2023-04-27T10:38:50.989Z,966.9
2023-04-27T10:40:34.723Z,1228.5
2023-04-27T10:42:18.397Z,1303.4
2023-04-27T10:44:02.095Z,1094
2023-04-27T10:45:45.952Z,899.1
2023-04-27T10:47:29.519Z,853.2
2023-04-27T10:49:13.276Z,774.8
2023-04-27T10:50:57.039Z,686.5
2023-04-27T10:52:40.629Z,665.5
2023-04-27T10:54:24.310Z,579.5
2023-04-27T10:56:08.016Z,552.1
2023-04-27T10:57:51.721Z,518.5
2023-04-27T10:59:35.450Z,518.4
2023-04-27T11:01:19.131Z,538
2023-04-27T11:03:02.834Z,616.1
2023-04-27T11:04:46.598Z,836
2023-04-27T11:06:30.254Z,829
2023-04-27T11:08:13.945Z,814.7
2023-04-27T11:09:57.710Z,812.2
2023-04-27T11:11:41.433Z,843.9
2023-04-27T11:13:25.121Z,871.9
2023-04-27T11:15:08.769Z,873.6
2023-04-27T11:16:52.442Z,871.7
2023-04-27T11:18:36.183Z,869.7
2023-04-27T11:20:19.852Z,864.7
2023-04-27T11:22:03.550Z,857.1
2023-04-27T11:23:47.352Z,856.9
2023-04-27T11:25:30.958Z,860.1
2023-04-27T11:27:14.653Z,863.6
2023-04-27T11:28:58.381Z,866.2
2023-04-27T11:30:42.069Z,869
2023-04-27T11:32:25.766Z,874.3
2023-04-27T11:34:09.472Z,873.3
2023-04-27T11:35:53.163Z,875.4
2023-04-27T11:37:36.873Z,877.7
2023-04-27T11:39:20.593Z,883.4
2023-04-27T11:41:04.456Z,886.2
2023-04-27T11:42:48.126Z,883.9
2023-04-27T11:44:31.846Z,883.7
2023-04-27T11:46:15.544Z,879.4
2023-04-27T11:47:59.172Z,877.6
2023-04-27T11:49:42.865Z,876.1
2023-04-27T11:51:26.678Z,871.5
2023-04-27T11:53:10.245Z,870.5
2023-04-27T11:54:53.890Z,869.7
2023-04-27T11:56:37.599Z,870.2
2023-04-27T11:58:21.363Z,871.4
2023-04-27T12:00:04.995Z,870.1
2023-04-27T12:01:48.744Z,866.7
2023-04-27T12:03:32.488Z,864.5
2023-04-27T12:05:16.107Z,863.7
2023-04-27T12:06:59.964Z,861.2
2023-04-27T12:08:43.507Z,860
2023-04-27T12:10:27.257Z,859
2023-04-27T12:12:10.932Z,858.1
2023-04-27T12:13:54.672Z,858.2
2023-04-27T12:15:38.329Z,856.4
2023-04-27T12:17:22.101Z,851.4
2023-04-27T12:19:05.771Z,850.8
2023-04-27T12:20:49.437Z,854.2
2023-04-27T12:22:33.208Z,856.9
2023-04-27T12:24:16.913Z,858.5
2023-04-27T12:26:00.593Z,855.5
2023-04-27T12:27:44.244Z,854.7
2023-04-27T12:29:27.948Z,851
2023-04-27T12:31:11.657Z,850.2
2023-04-27T12:32:55.346Z,849.6
2023-04-27T12:34:39.113Z,853
2023-04-27T12:36:22.762Z,854.2
2023-04-27T12:38:06.461Z,848.5
2023-04-27T12:39:50.174Z,845.8
2023-04-27T12:41:33.884Z,845.5
2023-04-27T12:43:17.612Z,853.6
2023-04-27T12:45:01.278Z,859
2023-04-27T12:46:44.971Z,859.2
2023-04-27T12:48:28.680Z,859.4
2023-04-27T12:50:12.382Z,861.6
2023-04-27T12:51:56.090Z,865.2
2023-04-27T12:53:39.861Z,865.2
2023-04-27T12:55:23.587Z,864.7
2023-04-27T12:57:07.319Z,866.6
2023-04-27T12:58:51.021Z,865.1
2023-04-27T13:00:34.628Z,866.2
2023-04-27T13:02:18.412Z,868.2
2023-04-27T13:04:02.053Z,869.6
2023-04-27T13:05:45.708Z,869.6
2023-04-27T13:07:29.990Z,870.6
2023-04-27T13:09:13.114Z,872.4
2023-04-27T13:10:56.821Z,871.7
2023-04-27T13:12:40.560Z,872
2023-04-27T13:14:24.237Z,873
2023-04-27T13:16:07.941Z,872.4
2023-04-27T13:17:51.643Z,869.3
2023-04-27T13:19:35.355Z,869.3
2023-04-27T13:21:19.063Z,871.2
2023-04-27T13:23:02.780Z,872.4
2023-04-27T13:26:30.164Z,873.9
2023-04-27T13:28:13.893Z,874.9
2023-04-27T13:29:57.576Z,872.1
2023-04-27T13:31:41.330Z,871.7
2023-04-27T13:33:24.949Z,872.2
2023-04-27T13:35:08.753Z,869.2
2023-04-27T13:36:52.376Z,869.9
2023-04-27T13:38:36.055Z,866.8
2023-04-27T13:40:19.755Z,861.4
2023-04-27T13:42:03.468Z,858.6
2023-04-27T13:43:47.192Z,859.3
2023-04-27T13:45:30.882Z,861.5
2023-04-27T13:47:14.561Z,862.2
2023-04-27T13:48:58.294Z,863.3
2023-04-27T13:50:42.009Z,863.6
2023-04-27T13:52:25.755Z,857.5
2023-04-27T13:54:09.467Z,849.9
2023-04-27T13:55:53.123Z,846.4
2023-04-27T13:57:36.788Z,835.9
2023-04-27T13:59:20.487Z,832.7
2023-04-27T14:01:04.227Z,832.4
2023-04-27T14:02:47.943Z,831.9
2023-04-27T14:04:31.761Z,835.7
2023-04-27T14:06:15.414Z,835.7
2023-04-27T14:07:59.016Z,886
2023-04-27T14:09:42.692Z,922.1
2023-04-27T14:11:26.574Z,892.2
2023-04-27T14:13:10.122Z,884.2
2023-04-27T14:14:53.805Z,881.7
2023-04-27T14:16:37.631Z,881.8
2023-04-27T14:18:21.297Z,883.2
2023-04-27T14:20:04.915Z,884.2
2023-04-27T14:21:48.629Z,885.5
2023-04-27T14:23:32.407Z,889.1
2023-04-27T14:25:16.031Z,892.4
2023-04-27T14:26:59.736Z,896.3
2023-04-27T14:28:43.438Z,894.1
2023-04-27T14:30:27.132Z,897.3
2023-04-27T14:32:10.855Z,900.9
2023-04-27T14:33:54.567Z,901.3
2023-04-27T14:35:38.263Z,897.7
2023-04-27T14:37:21.994Z,896.9
2023-04-27T14:39:05.663Z,896.7
2023-04-27T14:40:49.346Z,897.6
2023-04-27T14:42:33.047Z,895.1
2023-04-27T14:44:16.807Z,890.6
2023-04-27T14:46:00.479Z,893.2
2023-04-27T14:47:44.261Z,897
2023-04-27T14:49:27.863Z,901.7
2023-04-27T14:51:11.564Z,897.8
2023-04-27T14:52:55.269Z,898.2
2023-04-27T14:54:38.972Z,900.1
2023-04-27T14:56:22.672Z,899.8
2023-04-27T14:58:06.374Z,901.3
2023-04-27T14:59:50.079Z,904.9
2023-04-27T15:01:33.782Z,913.5
2023-04-27T15:03:17.487Z,916.7
2023-04-27T15:05:01.179Z,917.7
2023-04-27T15:06:44.961Z,920.6
2023-04-27T15:08:28.590Z,918.9
2023-04-27T15:10:12.289Z,912
2023-04-27T15:11:56.067Z,901.4
2023-04-27T15:13:39.698Z,889.7
2023-04-27T15:15:23.401Z,885.9
2023-04-27T15:17:07.104Z,883.8
2023-04-27T15:18:50.798Z,880.6
2023-04-27T15:20:34.509Z,880.8
2023-04-27T15:22:18.221Z,877.8
2023-04-27T15:24:01.943Z,878
2023-04-27T15:25:45.636Z,878.5
2023-04-27T15:27:29.323Z,877.3
2023-04-27T15:29:13.023Z,878.4
2023-04-27T15:30:56.732Z,879.7
2023-04-27T15:32:40.427Z,876.3
2023-04-27T15:34:24.131Z,875
2023-04-27T15:36:07.832Z,883.7
2023-04-27T15:37:51.528Z,890.9
2023-04-27T15:39:35.321Z,893.6
2023-04-27T15:41:18.934Z,900.6
2023-04-27T15:43:02.639Z,908.2
2023-04-27T15:44:46.402Z,922.8
2023-04-27T15:46:30.045Z,944.8
2023-04-27T15:48:13.744Z,956.8
2023-04-27T15:49:57.516Z,962.5
2023-04-27T15:51:41.153Z,968.2
2023-04-27T15:53:24.868Z,970.6
2023-04-27T15:55:08.572Z,971.7
2023-04-27T15:56:52.263Z,968.4
2023-04-27T15:58:36.033Z,969
2023-04-27T16:00:19.664Z,969.2
2023-04-27T16:02:03.364Z,968.8
2023-04-27T16:03:47.076Z,958.7
2023-04-27T16:05:30.779Z,951.3
2023-04-27T16:07:14.481Z,941.6
2023-04-27T16:08:58.380Z,937.7
2023-04-27T16:10:41.879Z,938.1
2023-04-27T16:12:25.592Z,935.8
2023-04-27T16:14:09.303Z,935.5
2023-04-27T16:15:52.995Z,933.2
2023-04-27T16:17:36.832Z,932.7
2023-04-27T16:19:20.404Z,933.5
2023-04-27T16:21:04.091Z,938
2023-04-27T16:22:47.841Z,935.5
2023-04-27T16:24:31.545Z,930.8
2023-04-27T16:26:15.289Z,929.8
2023-04-27T16:27:58.910Z,937
2023-04-27T16:29:42.612Z,945.5
2023-04-27T16:31:26.375Z,950
2023-04-27T16:33:10.001Z,950.4
2023-04-27T16:34:53.763Z,949.6
2023-04-27T16:36:37.427Z,946.9
2023-04-27T16:38:21.121Z,948.1
2023-04-27T16:40:04.819Z,948.1
2023-04-27T16:41:48.532Z,944
2023-04-27T16:43:32.233Z,939.7
2023-04-27T16:45:15.976Z,941
2023-04-27T16:46:59.666Z,941.2
2023-04-27T16:48:43.333Z,938.4
2023-04-27T16:50:27.051Z,938.1
2023-04-27T16:52:10.733Z,938.9
2023-04-27T16:53:54.441Z,938.6
2023-04-27T16:55:38.153Z,940.7
2023-04-27T16:57:21.847Z,939.3
2023-04-27T16:59:05.549Z,941
2023-04-27T17:00:49.274Z,942.4
2023-04-27T17:02:32.955Z,941.6
2023-04-27T17:04:16.675Z,939.5
2023-04-27T17:06:00.355Z,936.5
2023-04-27T17:07:44.062Z,934.8
2023-04-27T17:09:27.761Z,932.1
2023-04-27T17:11:11.465Z,929
2023-04-27T17:12:55.172Z,928.9
2023-04-27T17:14:38.870Z,932
2023-04-27T17:16:22.576Z,939.5
2023-04-27T17:18:06.298Z,947.2
2023-04-27T17:19:49.983Z,946.7
2023-04-27T17:21:33.787Z,948.2
2023-04-27T17:23:17.387Z,949.2
2023-04-27T17:25:01.159Z,952.9
2023-04-27T17:26:44.801Z,961
2023-04-27T17:28:28.484Z,964.2
2023-04-27T17:30:12.199Z,966.2
2023-04-27T17:31:55.896Z,969.3
2023-04-27T17:33:39.600Z,980.5
2023-04-27T17:35:23.301Z,982.9
2023-04-27T17:37:07.006Z,981.1
2023-04-27T17:38:50.735Z,977.6
2023-04-27T17:40:34.425Z,974.6
2023-04-27T17:42:18.120Z,968.7
2023-04-27T17:44:01.821Z,964.8
2023-04-27T17:45:45.529Z,963.2
2023-04-27T17:47:29.222Z,963.4
2023-04-27T17:49:12.928Z,960.4
2023-04-27T17:50:56.644Z,956.7
2023-04-27T17:52:40.347Z,950.5
2023-04-27T17:54:24.051Z,951.3
2023-04-27T17:56:07.742Z,955.9
2023-04-27T17:57:51.503Z,953.6
2023-04-27T17:59:35.206Z,952.5
2023-04-27T18:01:18.845Z,954.9
2023-04-27T18:03:02.612Z,955.1
2023-04-27T18:04:46.275Z,958.4
2023-04-27T18:06:29.961Z,962.6
2023-04-27T18:08:13.666Z,987.3
2023-04-27T18:09:57.367Z,1005.4
2023-04-27T18:11:41.072Z,1003
2023-04-27T18:13:24.777Z,1005
2023-04-27T18:15:08.470Z,1004
2023-04-27T18:16:52.183Z,1007.9
2023-04-27T18:18:35.878Z,1012.1
2023-04-27T18:20:19.583Z,1019
2023-04-27T18:22:03.327Z,1022.9
2023-04-27T18:23:46.991Z,1021
2023-04-27T18:25:30.726Z,1023.4
2023-04-27T18:27:14.467Z,1030.7
2023-04-27T18:28:58.111Z,1038.3
2023-04-27T18:30:41.816Z,1045.9
2023-04-27T18:32:25.504Z,1052
2023-04-27T18:34:09.210Z,1055.1
2023-04-27T18:35:52.936Z,1053.1
2023-04-27T18:37:36.624Z,1050.4
2023-04-27T18:39:20.374Z,1050.8
2023-04-27T18:41:04.017Z,1050
2023-04-27T18:42:47.718Z,1052.4
2023-04-27T18:44:31.481Z,1057.9
2023-04-27T18:46:15.109Z,1051.1
2023-04-27T18:47:58.816Z,1047
2023-04-27T18:49:42.602Z,1047.1
2023-04-27T18:51:26.460Z,1033.1
2023-04-27T18:53:10.053Z,1000.2
2023-04-27T18:54:53.788Z,993.3
2023-04-27T18:56:37.326Z,993.9
2023-04-27T18:58:21.201Z,988
2023-04-27T19:00:04.872Z,979.2
2023-04-27T19:01:48.566Z,970.8
2023-04-27T19:03:32.158Z,968
2023-04-27T19:05:16.051Z,962.1
2023-04-27T19:06:59.786Z,959.7
2023-04-27T19:08:43.373Z,967.6
2023-04-27T19:10:27.096Z,969.4
2023-04-27T19:12:10.769Z,972.7
2023-04-27T19:13:54.430Z,978
2023-04-27T19:15:38.064Z,980.7
2023-04-27T19:17:21.748Z,981.5
2023-04-27T19:19:05.601Z,981.4
2023-04-27T19:20:49.183Z,982.2
2023-04-27T19:22:32.872Z,985.3
2023-04-27T19:24:16.571Z,988.5
2023-04-27T19:26:00.332Z,989.7
2023-04-27T19:27:43.960Z,989.6
2023-04-27T19:29:27.673Z,985.4
2023-04-27T19:31:11.367Z,980.7
2023-04-27T19:32:55.073Z,977
2023-04-27T19:34:38.786Z,978
2023-04-27T19:36:22.483Z,975.3
2023-04-27T19:38:06.180Z,973.5
2023-04-27T19:39:49.883Z,975.6
2023-04-27T19:41:33.594Z,976.2
2023-04-27T19:43:17.290Z,970.6
2023-04-27T19:45:00.982Z,967.9
2023-04-27T19:46:44.694Z,968.6
2023-04-27T19:48:28.398Z,971.3
2023-04-27T19:50:12.101Z,972.3
2023-04-27T19:51:55.808Z,971.9
2023-04-27T19:53:39.498Z,977.2
2023-04-27T19:55:23.214Z,986.7
2023-04-27T19:57:06.907Z,991.4
2023-04-27T19:58:50.612Z,998.4
2023-04-27T20:00:34.315Z,1001.6
2023-04-27T20:02:18.024Z,1001.5
2023-04-27T20:04:01.719Z,999.8
2023-04-27T20:05:45.420Z,998.9
2023-04-27T20:07:29.134Z,1000.6
2023-04-27T20:09:12.826Z,998.5
2023-04-27T20:10:56.533Z,997.9
2023-04-27T20:12:40.235Z,993.6
2023-04-27T20:14:23.936Z,988.7
2023-04-27T20:16:07.641Z,986.8
2023-04-27T20:17:51.334Z,983.7
2023-04-27T20:21:18.733Z,982.4
2023-04-27T20:23:02.456Z,980.6
2023-04-27T20:24:46.150Z,981.3
2023-04-27T20:26:29.849Z,980.5
2023-04-27T20:28:13.562Z,977.2
2023-04-27T20:29:57.264Z,976.2
2023-04-27T20:31:40.957Z,973.4
2023-04-27T20:33:24.661Z,976
2023-04-27T20:35:08.356Z,976.8
2023-04-27T20:36:52.070Z,978.3
2023-04-27T20:38:35.772Z,980.5
2023-04-27T20:40:19.462Z,980.2
2023-04-27T20:42:03.171Z,984.8
2023-04-27T20:43:46.866Z,984.4
2023-04-27T20:45:30.581Z,983.5
2023-04-27T20:47:14.280Z,983
2023-04-27T20:48:57.979Z,992.6
2023-04-27T20:50:41.682Z,1012.8
2023-04-27T20:52:25.387Z,1015.8
2023-04-27T20:54:09.086Z,1023.6
2023-04-27T20:55:52.793Z,1022.3
2023-04-27T20:57:36.496Z,1026.9
2023-04-27T20:59:20.194Z,1032.3
2023-04-27T21:01:03.907Z,1028.4
2023-04-27T21:02:47.596Z,1069.4
2023-04-27T21:04:31.316Z,1065.2
2023-04-27T21:06:15.004Z,1019.4
2023-04-27T21:07:58.713Z,1000.4
2023-04-27T21:09:42.415Z,1002.5
2023-04-27T21:11:26.111Z,1001.5
2023-04-27T21:13:09.822Z,1000.1
2023-04-27T21:14:53.517Z,1001.9
2023-04-27T21:16:37.222Z,1002.1
2023-04-27T21:18:20.929Z,1000.9
2023-04-27T21:20:04.630Z,1001.2
2023-04-27T21:21:48.330Z,1004.7
2023-04-27T21:23:32.042Z,1008.7
2023-04-27T21:25:15.732Z,1010.2
2023-04-27T21:26:59.440Z,1027.9
2023-04-27T21:28:43.146Z,1221.7
2023-04-27T21:30:26.838Z,1210.4
2023-04-27T21:32:10.556Z,1269.6
2023-04-27T21:33:54.253Z,1220.7
2023-04-27T21:35:37.949Z,1125.2
2023-04-27T21:37:21.654Z,1107.7
2023-04-27T21:39:05.355Z,1095.8
2023-04-27T21:40:49.062Z,1081.6
2023-04-27T21:42:32.756Z,1070.5
2023-04-27T21:44:16.455Z,1063.1
2023-04-27T21:46:00.163Z,1070.9
2023-04-27T21:47:43.874Z,1098.5
2023-04-27T21:49:27.563Z,1106.3
2023-04-27T21:51:11.265Z,1110.4
2023-04-27T21:52:54.973Z,1115.1
2023-04-27T21:54:38.668Z,1123.1
2023-04-27T21:56:22.377Z,1124
2023-04-27T21:58:06.068Z,1121.1
2023-04-27T21:59:49.790Z,1117.7
2023-04-27T22:01:33.492Z,1112.3
2023-04-27T22:03:17.180Z,1107.2
2023-04-27T22:05:00.882Z,1103.5
2023-04-27T22:06:44.592Z,1100.3
2023-04-27T22:08:28.287Z,1097.1